createdAt,value
2019-04-16T00:00:42.749Z,14.87
2019-04-16T00:03:14.564Z,14.47
2019-04-16T00:05:48.982Z,14.50
2019-04-16T00:08:27.914Z,15.03
2019-04-16T00:11:05.113Z,14.23
2019-04-16T00:13:42.300Z,14.63
2019-04-16T00:16:13.933Z,13.77
2019-04-16T00:18:56.774Z,14.17
2019-04-16T00:21:44.661Z,14.70
2019-04-16T00:24:36.878Z,14.40
2019-04-16T00:27:08.354Z,15.00
2019-04-16T00:29:40.004Z,14.33
2019-04-16T00:32:17.702Z,14.63
2019-04-16T00:34:49.144Z,14.97
2019-04-16T00:37:21.501Z,14.67
2019-04-16T00:39:56.022Z,15.20
2019-04-16T00:42:27.262Z,14.67
2019-04-16T00:44:58.757Z,14.67
2019-04-16T00:47:30.185Z,14.90
2019-04-16T00:50:01.636Z,14.43
2019-04-16T00:52:36.699Z,15.80
2019-04-16T00:55:06.791Z,15.23
2019-04-16T00:57:38.271Z,15.63
2019-04-16T01:00:10.492Z,14.60
2019-04-16T01:02:46.778Z,14.43
2019-04-16T01:05:16.689Z,14.50
2019-04-16T01:07:48.141Z,15.10
2019-04-16T01:10:19.545Z,13.93
2019-04-16T01:12:51.066Z,15.83
2019-04-16T01:15:23.640Z,15.60
2019-04-16T01:17:55.145Z,15.23
2019-04-16T01:20:26.608Z,15.53
2019-04-16T01:22:58.066Z,15.43
2019-04-16T01:25:29.538Z,15.27
2019-04-16T01:28:03.605Z,15.73
2019-04-16T01:30:45.201Z,15.77
2019-04-16T01:33:23.458Z,15.50
2019-04-16T01:36:17.181Z,16.03
2019-04-16T01:38:53.290Z,15.80
2019-04-16T01:41:25.009Z,14.33
2019-04-16T01:43:57.151Z,16.33
2019-04-16T01:46:32.573Z,16.03
2019-04-16T01:49:02.931Z,14.67
2019-04-16T01:51:37.586Z,15.07
2019-04-16T01:54:07.739Z,14.90
2019-04-16T01:56:39.293Z,15.60
2019-04-16T01:59:10.810Z,16.03
2019-04-16T02:01:43.371Z,15.77
2019-04-16T02:04:19.565Z,15.33
2019-04-16T02:06:48.901Z,15.73
2019-04-16T02:09:22.769Z,14.97
2019-04-16T02:11:53.633Z,15.00
2019-04-16T02:14:25.250Z,15.90
2019-04-16T02:16:56.820Z,15.40
2019-04-16T02:19:32.320Z,15.57
2019-04-16T02:22:14.065Z,15.23
2019-04-16T02:24:47.871Z,15.47
2019-04-16T02:27:19.049Z,15.80
2019-04-16T02:29:53.552Z,15.77
2019-04-16T02:32:23.746Z,15.67
2019-04-16T02:34:55.241Z,15.13
2019-04-16T02:37:26.803Z,15.70
2019-04-16T02:39:58.285Z,15.40
2019-04-16T02:42:32.801Z,14.83
2019-04-16T02:45:04.614Z,15.27
2019-04-16T02:47:41.866Z,14.93
2019-04-16T02:50:13.114Z,15.53
2019-04-16T02:52:51.128Z,14.60
2019-04-16T02:55:43.913Z,14.33
2019-04-16T02:58:23.326Z,15.80
2019-04-16T03:01:25.612Z,14.80
2019-04-16T03:04:05.848Z,14.83
2019-04-16T03:06:37.463Z,15.23
2019-04-16T03:09:09.978Z,16.37
2019-04-16T03:11:41.702Z,15.50
2019-04-16T03:14:13.305Z,15.50
2019-04-16T03:17:18.974Z,16.03
2019-04-16T03:19:51.998Z,15.03
2019-04-16T03:22:23.638Z,14.93
2019-04-16T03:24:55.137Z,15.03
2019-04-16T03:27:26.648Z,15.97
2019-04-16T03:30:03.004Z,15.40
2019-04-16T03:32:35.372Z,15.93
2019-04-16T03:35:04.478Z,16.33
2019-04-16T03:37:35.911Z,16.60
2019-04-16T03:40:16.558Z,15.60
2019-04-16T03:42:40.717Z,16.10
2019-04-16T03:45:12.374Z,15.73
2019-04-16T03:47:43.829Z,15.77
2019-04-16T03:50:15.555Z,15.90
2019-04-16T03:52:47.005Z,15.40
2019-04-16T03:55:18.423Z,14.90
2019-04-16T03:57:49.872Z,15.60
2019-04-16T04:00:21.372Z,15.50
2019-04-16T04:02:55.161Z,15.67
2019-04-16T04:05:26.205Z,16.23
2019-04-16T04:07:58.644Z,15.30
2019-04-16T04:10:31.436Z,15.50
2019-04-16T04:13:04.906Z,15.43
2019-04-16T04:15:39.782Z,15.20
2019-04-16T04:18:12.790Z,15.23
2019-04-16T04:20:49.624Z,15.80
2019-04-16T04:23:18.034Z,15.30
2019-04-16T04:25:49.513Z,14.90
2019-04-16T04:28:20.989Z,15.80
2019-04-16T04:30:52.595Z,19.97
2019-04-16T04:33:41.587Z,26.07
2019-04-16T04:36:12.283Z,23.03
2019-04-16T04:38:43.688Z,18.20
2019-04-16T04:41:15.328Z,16.40
2019-04-16T04:43:46.924Z,15.63
2019-04-16T04:46:19.750Z,16.03
2019-04-16T04:48:54.998Z,16.17
2019-04-16T04:51:24.401Z,15.70
2019-04-16T04:53:55.861Z,15.70
2019-04-16T04:56:28.068Z,16.27
2019-04-16T04:59:02.479Z,16.00
2019-04-16T05:01:33.222Z,16.27
2019-04-16T05:04:26.649Z,15.50
2019-04-16T05:07:04.585Z,16.60
2019-04-16T05:09:36.411Z,16.03
2019-04-16T05:12:08.612Z,16.27
2019-04-16T05:14:50.864Z,15.27
2019-04-16T05:17:24.456Z,16.87
2019-04-16T05:19:55.927Z,16.57
2019-04-16T05:22:28.386Z,18.17
2019-04-16T05:25:01.585Z,17.97
2019-04-16T05:27:33.364Z,17.63
2019-04-16T05:30:05.485Z,17.33
2019-04-16T05:32:36.959Z,17.00
2019-04-16T05:35:10.311Z,16.87
2019-04-16T05:37:41.483Z,17.77
2019-04-16T05:40:13.110Z,17.50
2019-04-16T05:42:44.571Z,17.63
2019-04-16T05:45:16.556Z,17.67
2019-04-16T05:47:49.026Z,17.97
2019-04-16T05:50:21.882Z,17.57
2019-04-16T05:52:54.288Z,17.90
2019-04-16T05:55:40.880Z,18.00
2019-04-16T05:58:12.802Z,18.10
2019-04-16T06:00:49.441Z,17.43
2019-04-16T06:03:22.425Z,17.60
2019-04-16T06:05:56.318Z,17.13
2019-04-16T06:08:27.763Z,17.23
2019-04-16T06:10:59.273Z,18.17
2019-04-16T06:14:01.697Z,17.03
2019-04-16T06:17:04.768Z,17.83
2019-04-16T06:19:58.848Z,17.43
2019-04-16T06:22:48.062Z,17.57
2019-04-16T06:25:35.436Z,16.17
2019-04-16T06:28:35.045Z,16.57
2019-04-16T06:31:25.750Z,16.23
2019-04-16T06:34:06.717Z,16.10
2019-04-16T06:36:55.950Z,17.17
2019-04-16T06:39:43.886Z,16.80
2019-04-16T06:42:33.888Z,16.27
2019-04-16T06:45:23.801Z,16.60
2019-04-16T06:47:59.836Z,15.67
2019-04-16T06:51:00.369Z,17.00
2019-04-16T06:53:43.548Z,16.37
2019-04-16T06:56:37.334Z,16.83
2019-04-16T06:59:30.456Z,16.33
2019-04-16T07:02:26.163Z,16.67
2019-04-16T07:05:16.584Z,16.10
2019-04-16T07:08:07.220Z,16.73
2019-04-16T07:10:48.934Z,16.27
2019-04-16T07:13:20.580Z,16.27
2019-04-16T07:15:53.301Z,15.63
2019-04-16T07:18:25.577Z,16.13
2019-04-16T07:20:58.500Z,16.27
2019-04-16T07:23:30.558Z,15.67
2019-04-16T07:26:04.292Z,15.23
2019-04-16T07:29:01.028Z,14.97
2019-04-16T07:31:55.154Z,16.13
2019-04-16T07:34:45.392Z,14.67
2019-04-16T07:37:24.225Z,14.53
2019-04-16T07:40:13.136Z,15.33
2019-04-16T07:43:09.369Z,12.60
2019-04-16T07:45:47.978Z,12.33
2019-04-16T07:48:37.276Z,11.90
2019-04-16T07:51:24.597Z,11.07
2019-04-16T07:54:21.680Z,11.40
2019-04-16T07:56:52.681Z,10.50
2019-04-16T07:59:24.735Z,11.20
2019-04-16T08:01:58.014Z,10.00
2019-04-16T08:04:35.400Z,10.40
2019-04-16T08:07:05.406Z,9.93
2019-04-16T08:09:37.538Z,10.40
2019-04-16T08:12:22.082Z,10.03
2019-04-16T08:14:42.281Z,9.57
2019-04-16T08:17:26.148Z,9.00
2019-04-16T08:19:59.633Z,8.40
2019-04-16T08:22:40.122Z,10.10
2019-04-16T08:25:18.536Z,8.93
2019-04-16T08:28:01.251Z,8.13
2019-04-16T08:30:55.831Z,8.17
2019-04-16T08:33:28.669Z,8.53
2019-04-16T08:36:00.740Z,7.63
2019-04-16T08:38:34.860Z,8.07
2019-04-16T08:41:05.414Z,8.23
2019-04-16T08:43:36.954Z,8.20
2019-04-16T08:46:11.244Z,8.03
2019-04-16T08:48:41.594Z,8.30
2019-04-16T08:51:13.189Z,9.00
2019-04-16T08:53:46.792Z,7.97
2019-04-16T08:56:17.872Z,8.27
2019-04-16T08:58:49.348Z,8.80
2019-04-16T09:01:26.877Z,9.00
2019-04-16T09:04:01.505Z,8.10
2019-04-16T09:06:31.661Z,8.40
2019-04-16T09:09:24.315Z,7.97
2019-04-16T09:11:56.764Z,8.83
2019-04-16T09:14:30.127Z,9.00
2019-04-16T09:17:16.718Z,7.43
2019-04-16T09:19:53.136Z,8.77
2019-04-16T09:22:24.727Z,9.27
2019-04-16T09:25:14.119Z,9.40
2019-04-16T09:27:49.788Z,9.27
2019-04-16T09:30:36.343Z,8.57
2019-04-16T09:33:14.419Z,9.57
2019-04-16T09:35:53.457Z,9.93
2019-04-16T09:38:45.506Z,9.80
2019-04-16T09:41:21.879Z,9.43
2019-04-16T09:43:57.094Z,9.27
2019-04-16T09:46:49.876Z,9.73
2019-04-16T09:49:04.889Z,10.07
2019-04-16T09:51:34.586Z,10.30
2019-04-16T09:54:06.121Z,10.10
2019-04-16T09:56:37.638Z,11.07
2019-04-16T09:59:23.609Z,11.10
2019-04-16T10:02:11.534Z,10.30
2019-04-16T10:04:43.092Z,11.10
2019-04-16T10:07:14.567Z,10.87
2019-04-16T10:09:55.324Z,10.50
2019-04-16T10:12:27.358Z,10.37
2019-04-16T10:14:59.301Z,10.47
2019-04-16T10:17:31.671Z,10.83
2019-04-16T10:20:03.601Z,11.63
2019-04-16T10:22:36.336Z,11.20
2019-04-16T10:25:17.428Z,11.10
2019-04-16T10:27:55.277Z,10.37
2019-04-16T10:30:42.426Z,11.40
2019-04-16T10:33:14.136Z,10.30
2019-04-16T10:35:48.413Z,10.97
2019-04-16T10:38:37.361Z,10.23
2019-04-16T10:41:15.433Z,9.93
2019-04-16T10:44:06.024Z,10.83
2019-04-16T10:46:56.732Z,9.80
2019-04-16T10:49:37.968Z,11.07
2019-04-16T10:52:40.592Z,11.03
2019-04-16T10:55:18.748Z,9.87
2019-04-16T10:58:09.559Z,10.60
2019-04-16T11:01:01.424Z,10.47
2019-04-16T11:03:45.663Z,10.27
2019-04-16T11:06:37.915Z,10.17
2019-04-16T11:09:09.692Z,9.43
2019-04-16T11:11:41.094Z,9.13
2019-04-16T11:14:12.885Z,9.33
2019-04-16T11:16:47.110Z,9.17
2019-04-16T11:19:18.987Z,10.40
2019-04-16T11:21:51.080Z,9.63
2019-04-16T11:24:27.596Z,9.40
2019-04-16T11:26:59.738Z,8.60
2019-04-16T11:29:32.672Z,8.70
2019-04-16T11:32:05.154Z,8.80
2019-04-16T11:34:36.917Z,8.67
2019-04-16T11:37:09.495Z,8.30
2019-04-16T11:39:41.328Z,8.77
2019-04-16T11:42:13.575Z,9.10
2019-04-16T11:44:45.332Z,8.97
2019-04-16T11:47:16.995Z,8.83
2019-04-16T11:49:48.612Z,8.93
2019-04-16T11:52:20.004Z,8.60
2019-04-16T11:57:44.897Z,8.50
2019-04-16T12:00:24.978Z,8.43
2019-04-16T12:03:17.565Z,8.00
2019-04-16T12:06:08.258Z,8.60
2019-04-16T12:08:59.165Z,7.93
2019-04-16T12:11:42.457Z,8.63
2019-04-16T12:14:34.896Z,7.43
2019-04-16T12:17:31.521Z,7.23
2019-04-16T12:20:24.768Z,7.47
2019-04-16T12:23:05.126Z,6.90
2019-04-16T12:25:51.117Z,6.87
2019-04-16T12:28:50.585Z,6.70
2019-04-16T12:31:36.058Z,6.73
2019-04-16T12:34:15.548Z,6.30
2019-04-16T12:37:10.296Z,6.60
2019-04-16T12:40:09.522Z,7.03
2019-04-16T12:42:58.396Z,7.10
2019-04-16T12:45:53.529Z,7.37
2019-04-16T12:48:46.700Z,7.53
2019-04-16T12:51:40.708Z,7.93
2019-04-16T12:54:17.708Z,6.73
2019-04-16T12:57:14.501Z,7.23
2019-04-16T12:59:55.023Z,6.90
2019-04-16T13:02:35.506Z,6.77
2019-04-16T13:05:14.549Z,6.20
2019-04-16T13:08:14.101Z,6.23
2019-04-16T13:11:10.594Z,5.87
2019-04-16T13:14:15.869Z,6.07
2019-04-16T13:16:56.506Z,5.70
2019-04-16T13:20:06.090Z,5.47
2019-04-16T13:22:41.762Z,5.60
2019-04-16T13:25:26.818Z,5.73
2019-04-16T13:27:58.400Z,5.20
2019-04-16T13:30:29.963Z,4.90
2019-04-16T13:33:01.257Z,5.40
2019-04-16T13:35:32.727Z,4.93
2019-04-16T13:38:08.173Z,5.50
2019-04-16T13:40:41.275Z,5.07
2019-04-16T13:43:12.890Z,4.50
2019-04-16T13:45:44.276Z,4.53
2019-04-16T13:48:35.833Z,5.07
2019-04-16T13:51:15.144Z,5.43
2019-04-16T13:54:06.054Z,5.50
2019-04-16T13:56:40.858Z,5.07
2019-04-16T13:59:46.660Z,5.50
2019-04-16T14:02:38.346Z,5.13
2019-04-16T14:05:11.468Z,5.50
2019-04-16T14:07:44.278Z,4.97
2019-04-16T14:10:16.327Z,4.83
2019-04-16T14:12:47.776Z,4.20
2019-04-16T14:15:31.698Z,4.27
2019-04-16T14:17:59.147Z,4.77
2019-04-16T14:20:27.307Z,4.47
2019-04-16T14:22:58.689Z,5.33
2019-04-16T14:25:30.223Z,4.60
2019-04-16T14:28:03.536Z,5.23
2019-04-16T14:30:39.584Z,5.40
2019-04-16T14:33:15.032Z,5.30
2019-04-16T14:35:46.677Z,5.37
2019-04-16T14:38:24.579Z,5.00
2019-04-16T14:40:57.332Z,5.00
2019-04-16T14:43:33.894Z,6.10
2019-04-16T14:46:08.509Z,6.23
2019-04-16T14:48:42.458Z,5.43
2019-04-16T14:51:11.859Z,5.93
2019-04-16T14:54:06.972Z,5.70
2019-04-16T14:56:58.005Z,5.50
2019-04-16T14:59:37.468Z,6.17
2019-04-16T15:02:29.222Z,5.90
2019-04-16T15:05:15.468Z,6.70
2019-04-16T15:07:52.813Z,6.30
2019-04-16T15:10:55.454Z,6.87
2019-04-16T15:13:54.712Z,6.27
2019-04-16T15:16:45.150Z,6.30
2019-04-16T15:19:41.964Z,7.90
2019-04-16T15:22:41.473Z,7.57
2019-04-16T15:25:35.131Z,7.30
2019-04-16T15:28:28.804Z,6.30
2019-04-16T15:31:19.298Z,6.70
2019-04-16T15:34:12.940Z,7.60
2019-04-16T15:36:50.135Z,7.27
2019-04-16T15:39:26.020Z,7.07
2019-04-16T15:42:19.424Z,7.37
2019-04-16T15:45:04.088Z,7.23
2019-04-16T15:47:53.212Z,6.37
2019-04-16T15:50:43.251Z,6.70
2019-04-16T15:53:32.617Z,7.83
2019-04-16T15:56:22.645Z,7.50
2019-04-16T15:59:12.625Z,7.90
2019-04-16T16:02:03.065Z,7.47
2019-04-16T16:04:48.800Z,8.50
2019-04-16T16:07:24.490Z,8.40
2019-04-16T16:10:06.172Z,8.20
2019-04-16T16:12:37.658Z,7.80
2019-04-16T16:15:10.482Z,8.33
2019-04-16T16:17:41.917Z,9.10
2019-04-16T16:20:14.304Z,7.93
2019-04-16T16:22:45.907Z,8.93
2019-04-16T16:25:17.322Z,8.43
2019-04-16T16:27:48.762Z,9.33
2019-04-16T16:30:20.169Z,8.67
2019-04-16T16:32:51.705Z,9.00
2019-04-16T16:35:23.129Z,9.00
2019-04-16T16:37:54.577Z,8.57
2019-04-16T16:40:26.087Z,10.03
2019-04-16T16:42:58.306Z,9.37
2019-04-16T16:45:47.484Z,8.83
2019-04-16T16:48:22.039Z,7.97
2019-04-16T16:50:54.590Z,9.30
2019-04-16T16:53:42.524Z,8.33
2019-04-16T16:56:21.102Z,8.87
2019-04-16T16:59:04.170Z,9.23
2019-04-16T17:01:55.667Z,8.23
2019-04-16T17:04:34.932Z,7.60
2019-04-16T17:09:54.349Z,8.00
2019-04-16T17:12:27.061Z,8.73
2019-04-16T17:15:01.591Z,8.63
2019-04-16T17:17:33.566Z,8.53
2019-04-16T17:20:05.540Z,7.43
2019-04-16T17:22:40.552Z,8.03
2019-04-16T17:25:12.034Z,7.10
2019-04-16T17:27:51.360Z,7.93
2019-04-16T17:30:17.474Z,8.07
2019-04-16T17:32:49.237Z,7.90
2019-04-16T17:35:21.703Z,7.43
2019-04-16T17:38:06.364Z,7.60
2019-04-16T17:40:47.350Z,7.57
2019-04-16T17:43:32.648Z,8.00
2019-04-16T17:46:31.950Z,7.93
2019-04-16T17:49:07.232Z,8.40
2019-04-16T17:52:01.165Z,8.07
2019-04-16T17:54:59.468Z,7.40
2019-04-16T17:57:42.805Z,7.97
2019-04-16T18:00:34.649Z,8.43
2019-04-16T18:03:30.825Z,8.13
2019-04-16T18:06:27.436Z,8.30
2019-04-16T18:09:22.553Z,8.13
2019-04-16T18:12:20.065Z,9.40
2019-04-16T18:15:00.517Z,9.17
2019-04-16T18:17:48.624Z,8.77
2019-04-16T18:20:38.325Z,8.57
2019-04-16T18:23:56.264Z,8.53
2019-04-16T18:27:02.855Z,9.20
2019-04-16T18:29:42.220Z,9.50
2019-04-16T18:32:31.980Z,9.60
2019-04-16T18:35:28.049Z,9.87
2019-04-16T18:38:19.101Z,8.60
2019-04-16T18:41:11.075Z,9.83
2019-04-16T18:44:10.517Z,9.37
2019-04-16T18:46:50.204Z,9.53
2019-04-16T18:49:23.086Z,9.60
2019-04-16T18:51:54.994Z,9.50
2019-04-16T18:54:26.565Z,10.17
2019-04-16T18:56:58.076Z,8.33
2019-04-16T18:59:29.641Z,9.23
2019-04-16T19:02:08.342Z,9.17
2019-04-16T19:04:43.875Z,8.90
2019-04-16T19:07:18.089Z,9.40
2019-04-16T19:09:49.777Z,8.57
2019-04-16T19:12:21.452Z,9.30
2019-04-16T19:14:52.901Z,8.63
2019-04-16T19:17:24.405Z,9.27
2019-04-16T19:19:55.872Z,9.20
2019-04-16T19:22:28.637Z,8.27
2019-04-16T19:25:00.281Z,8.17
2019-04-16T19:27:31.998Z,8.73
2019-04-16T19:30:03.943Z,8.73
2019-04-16T19:32:36.373Z,8.97
2019-04-16T19:35:11.233Z,8.73
2019-04-16T19:37:41.377Z,8.67
2019-04-16T19:40:16.078Z,9.63
2019-04-16T19:42:46.565Z,8.40
2019-04-16T19:45:18.176Z,9.17
2019-04-16T19:47:49.526Z,8.93
2019-04-16T19:50:21.282Z,8.13
2019-04-16T19:52:53.088Z,8.20
2019-04-16T19:55:24.536Z,8.77
2019-04-16T19:57:57.597Z,8.93
2019-04-16T20:00:29.508Z,10.00
2019-04-16T20:03:00.951Z,9.70
2019-04-16T20:05:32.474Z,9.60
2019-04-16T20:08:03.956Z,8.87
2019-04-16T20:10:35.733Z,9.17
2019-04-16T20:13:07.346Z,10.27
2019-04-16T20:15:43.186Z,9.53
2019-04-16T20:18:13.261Z,8.97
2019-04-16T20:20:47.123Z,10.20
2019-04-16T20:23:17.934Z,9.40
2019-04-16T20:25:49.390Z,9.93
2019-04-16T20:28:21.025Z,9.43
2019-04-16T20:31:00.657Z,10.10
2019-04-16T20:33:25.685Z,9.87
2019-04-16T20:35:57.141Z,10.17
2019-04-16T20:38:29.303Z,10.67
2019-04-16T20:41:18.131Z,10.20
2019-04-16T20:43:46.858Z,11.10
2019-04-16T20:46:18.586Z,10.77
2019-04-16T20:49:05.751Z,10.83
2019-04-16T20:51:26.260Z,10.93
2019-04-16T20:53:56.855Z,10.03
2019-04-16T20:56:29.194Z,10.57
2019-04-16T20:59:04.057Z,10.00
2019-04-16T21:01:37.668Z,10.27
2019-04-16T21:04:11.852Z,10.47
2019-04-16T21:06:43.579Z,9.97
2019-04-16T21:09:15.162Z,10.63
2019-04-16T21:11:47.690Z,10.27
2019-04-16T21:14:21.790Z,10.50
2019-04-16T21:16:53.260Z,10.53
2019-04-16T21:19:46.435Z,11.17
2019-04-16T21:22:19.279Z,10.20
2019-04-16T21:24:51.664Z,10.43
2019-04-16T21:27:23.157Z,9.90
2019-04-16T21:29:54.843Z,10.17
2019-04-16T21:33:00.707Z,10.40
2019-04-16T21:35:38.173Z,10.83
2019-04-16T21:38:42.216Z,10.83
2019-04-16T21:41:17.425Z,10.43
2019-04-16T21:43:50.866Z,10.90
2019-04-16T21:46:22.589Z,11.03
2019-04-16T21:48:56.012Z,10.53
2019-04-16T21:51:27.843Z,11.37
2019-04-16T21:54:00.013Z,10.50
2019-04-16T21:56:31.890Z,10.57
2019-04-16T21:59:05.395Z,10.50
2019-04-16T22:01:41.946Z,9.93
2019-04-16T22:04:17.173Z,10.80
2019-04-16T22:06:49.085Z,10.20
2019-04-16T22:09:22.260Z,10.20
2019-04-16T22:11:54.162Z,11.20
2019-04-16T22:14:25.478Z,10.50
2019-04-16T22:17:02.532Z,10.73
2019-04-16T22:19:30.097Z,10.37
2019-04-16T22:22:01.525Z,11.17
2019-04-16T22:24:33.113Z,11.43
2019-04-16T22:27:06.895Z,10.53
2019-04-16T22:29:37.902Z,11.30
2019-04-16T22:32:09.349Z,11.80
2019-04-16T22:34:40.873Z,11.60
2019-04-16T22:37:12.249Z,11.17
2019-04-16T22:39:58.793Z,11.07
2019-04-16T22:42:35.192Z,10.70
2019-04-16T22:45:28.972Z,10.93
2019-04-16T22:48:00.792Z,11.67
2019-04-16T22:50:34.864Z,11.17
2019-04-16T22:53:05.690Z,11.73
2019-04-16T22:55:37.240Z,11.60
2019-04-16T22:58:22.378Z,11.50
2019-04-16T23:00:57.997Z,11.87
2019-04-16T23:03:29.493Z,11.70
2019-04-16T23:06:05.146Z,11.23
2019-04-16T23:08:34.381Z,12.43
2019-04-16T23:11:06.208Z,12.13
2019-04-16T23:13:37.822Z,12.43
2019-04-16T23:16:09.413Z,11.77
2019-04-16T23:18:40.963Z,12.10
2019-04-16T23:21:12.406Z,11.60
2019-04-16T23:23:43.945Z,12.00
2019-04-16T23:26:15.509Z,11.67
2019-04-16T23:28:46.913Z,12.50
2019-04-16T23:31:19.541Z,11.87
2019-04-16T23:33:51.301Z,12.20
2019-04-16T23:36:22.732Z,12.57
2019-04-16T23:38:54.468Z,12.57
2019-04-16T23:41:26.020Z,12.00
2019-04-16T23:44:19.112Z,11.17
2019-04-16T23:47:11.165Z,12.17
2019-04-16T23:50:00.296Z,12.17
2019-04-16T23:52:35.480Z,11.13
2019-04-16T23:55:25.550Z,12.43
2019-04-16T23:58:18.947Z,12.60
